sensor_id;sensor_type;location;lat;lon;timestamp;pressure;altitude;pressure_sealevel;temperature;humidity
21574;BME280;10948;48.706;9.258;2023-12-04T00:01:10;97971.91;;;-6.24;100.00
21574;BME280;10948;48.706;9.258;2023-12-04T00:03:36;97971.06;;;-6.23;100.00
21574;BME280;10948;48.706;9.258;2023-12-04T00:06:01;97966.78;;;-6.29;100.00
21574;BME280;10948;48.706;9.258;2023-12-04T00:08:26;97955.00;;;-6.24;100.00
21574;BME280;10948;48.706;9.258;2023-12-04T00:10:51;97955.84;;;-6.26;100.00
21574;BME280;10948;48.706;9.258;2023-12-04T00:13:19;97953.97;;;-6.45;100.00
21574;BME280;10948;48.706;9.258;2023-12-04T00:15:44;97949.78;;;-6.45;100.00
21574;BME280;10948;48.706;9.258;2023-12-04T00:18:09;97947.25;;;-6.45;100.00
21574;BME280;10948;48.706;9.258;2023-12-04T00:20:34;97937.28;;;-6.25;100.00
21574;BME280;10948;48.706;9.258;2023-12-04T00:23:00;97938.03;;;-6.40;100.00
21574;BME280;10948;48.706;9.258;2023-12-04T00:25:25;97930.41;;;-6.41;100.00
21574;BME280;10948;48.706;9.258;2023-12-04T00:27:51;97928.88;;;-6.18;100.00
21574;BME280;10948;48.706;9.258;2023-12-04T00:30:16;97931.97;;;-6.57;100.00
21574;BME280;10948;48.706;9.258;2023-12-04T00:32:41;97923.59;;;-6.48;100.00
21574;BME280;10948;48.706;9.258;2023-12-04T00:35:06;97923.72;;;-6.36;100.00
21574;BME280;10948;48.706;9.258;2023-12-04T00:37:32;97914.38;;;-6.40;100.00
21574;BME280;10948;48.706;9.258;2023-12-04T00:39:57;97908.59;;;-6.30;100.00
21574;BME280;10948;48.706;9.258;2023-12-04T00:42:23;97908.50;;;-6.38;100.00
21574;BME280;10948;48.706;9.258;2023-12-04T00:44:48;97899.25;;;-6.36;100.00
21574;BME280;10948;48.706;9.258;2023-12-04T00:47:13;97898.38;;;-6.39;100.00
21574;BME280;10948;48.706;9.258;2023-12-04T00:49:38;97891.50;;;-6.52;100.00
21574;BME280;10948;48.706;9.258;2023-12-04T00:52:04;97893.25;;;-6.48;100.00
21574;BME280;10948;48.706;9.258;2023-12-04T00:54:29;97885.69;;;-6.44;100.00
21574;BME280;10948;48.706;9.258;2023-12-04T00:56:54;97888.09;;;-6.60;100.00
21574;BME280;10948;48.706;9.258;2023-12-04T00:59:19;97888.25;;;-6.42;100.00
21574;BME280;10948;48.706;9.258;2023-12-04T01:01:45;97889.13;;;-6.37;100.00
21574;BME280;10948;48.706;9.258;2023-12-04T01:04:10;97891.66;;;-6.37;100.00
21574;BME280;10948;48.706;9.258;2023-12-04T01:06:35;97889.94;;;-6.38;100.00
21574;BME280;10948;48.706;9.258;2023-12-04T01:09:00;97897.44;;;-6.49;100.00
21574;BME280;10948;48.706;9.258;2023-12-04T01:11:26;97894.16;;;-6.39;100.00
21574;BME280;10948;48.706;9.258;2023-12-04T01:13:51;97884.81;;;-6.50;100.00
21574;BME280;10948;48.706;9.258;2023-12-04T01:16:16;97882.16;;;-6.64;100.00
21574;BME280;10948;48.706;9.258;2023-12-04T01:18:42;97874.53;;;-6.68;100.00
21574;BME280;10948;48.706;9.258;2023-12-04T01:21:08;97877.16;;;-6.56;100.00
21574;BME280;10948;48.706;9.258;2023-12-04T01:23:36;97876.22;;;-6.64;100.00
21574;BME280;10948;48.706;9.258;2023-12-04T01:26:02;97871.16;;;-6.67;100.00
21574;BME280;10948;48.706;9.258;2023-12-04T01:28:27;97874.50;;;-6.71;100.00
21574;BME280;10948;48.706;9.258;2023-12-04T01:30:52;97875.47;;;-6.56;100.00
21574;BME280;10948;48.706;9.258;2023-12-04T01:33:17;97878.06;;;-6.45;100.00
21574;BME280;10948;48.706;9.258;2023-12-04T01:35:43;97883.91;;;-6.57;100.00
21574;BME280;10948;48.706;9.258;2023-12-04T01:38:08;97867.09;;;-6.50;100.00
21574;BME280;10948;48.706;9.258;2023-12-04T01:40:33;97863.56;;;-6.69;100.00
21574;BME280;10948;48.706;9.258;2023-12-04T01:42:59;97861.25;;;-6.40;100.00
21574;BME280;10948;48.706;9.258;2023-12-04T01:45:24;97852.72;;;-6.54;100.00
21574;BME280;10948;48.706;9.258;2023-12-04T01:47:49;97856.16;;;-6.46;100.00
21574;BME280;10948;48.706;9.258;2023-12-04T01:50:15;97862.06;;;-6.43;100.00
21574;BME280;10948;48.706;9.258;2023-12-04T01:52:41;97854.59;;;-6.29;100.00
21574;BME280;10948;48.706;9.258;2023-12-04T01:55:06;97850.34;;;-6.36;100.00
21574;BME280;10948;48.706;9.258;2023-12-04T01:57:32;97857.97;;;-6.30;100.00
21574;BME280;10948;48.706;9.258;2023-12-04T01:59:57;97851.97;;;-6.41;100.00
21574;BME280;10948;48.706;9.258;2023-12-04T02:02:23;97849.44;;;-6.38;100.00
21574;BME280;10948;48.706;9.258;2023-12-04T02:04:48;97844.47;;;-6.29;100.00
21574;BME280;10948;48.706;9.258;2023-12-04T02:07:13;97848.75;;;-6.19;100.00
21574;BME280;10948;48.706;9.258;2023-12-04T02:09:38;97840.22;;;-6.36;100.00
21574;BME280;10948;48.706;9.258;2023-12-04T02:12:04;97836.84;;;-6.32;100.00
21574;BME280;10948;48.706;9.258;2023-12-04T02:14:29;97840.28;;;-6.26;100.00
21574;BME280;10948;48.706;9.258;2023-12-04T02:16:55;97847.00;;;-6.28;100.00
21574;BME280;10948;48.706;9.258;2023-12-04T02:19:20;97841.06;;;-6.37;100.00
21574;BME280;10948;48.706;9.258;2023-12-04T02:21:46;97841.06;;;-6.31;100.00
21574;BME280;10948;48.706;9.258;2023-12-04T02:24:11;97834.31;;;-6.32;100.00
21574;BME280;10948;48.706;9.258;2023-12-04T02:26:42;97819.13;;;-6.32;100.00
21574;BME280;10948;48.706;9.258;2023-12-04T02:29:11;97820.00;;;-6.27;100.00
21574;BME280;10948;48.706;9.258;2023-12-04T02:31:39;97820.78;;;-6.40;100.00
21574;BME280;10948;48.706;9.258;2023-12-04T02:34:06;97819.09;;;-6.38;100.00
21574;BME280;10948;48.706;9.258;2023-12-04T02:36:32;97819.16;;;-6.31;100.00
21574;BME280;10948;48.706;9.258;2023-12-04T02:38:59;97826.75;;;-6.29;100.00
21574;BME280;10948;48.706;9.258;2023-12-04T02:41:24;97820.81;;;-6.34;100.00
21574;BME280;10948;48.706;9.258;2023-12-04T02:43:49;97820.88;;;-6.27;100.00
21574;BME280;10948;48.706;9.258;2023-12-04T02:46:15;97818.19;;;-6.46;100.00
21574;BME280;10948;48.706;9.258;2023-12-04T02:48:40;97815.72;;;-6.43;100.00
21574;BME280;10948;48.706;9.258;2023-12-04T02:51:05;97814.88;;;-6.38;100.00
21574;BME280;10948;48.706;9.258;2023-12-04T02:53:30;97812.34;;;-6.39;100.00
21574;BME280;10948;48.706;9.258;2023-12-04T02:55:56;97808.06;;;-6.51;100.00
21574;BME280;10948;48.706;9.258;2023-12-04T02:58:21;97792.91;;;-6.45;100.00
21574;BME280;10948;48.706;9.258;2023-12-04T03:00:46;97798.06;;;-6.33;100.00
21574;BME280;10948;48.706;9.258;2023-12-04T03:03:12;97783.69;;;-6.37;100.00
21574;BME280;10948;48.706;9.258;2023-12-04T03:05:37;97783.72;;;-6.29;100.00
21574;BME280;10948;48.706;9.258;2023-12-04T03:08:02;97771.84;;;-6.42;100.00
21574;BME280;10948;48.706;9.258;2023-12-04T03:10:27;97759.22;;;-6.39;100.00
21574;BME280;10948;48.706;9.258;2023-12-04T03:12:53;97756.75;;;-6.30;100.00
21574;BME280;10948;48.706;9.258;2023-12-04T03:15:18;97758.34;;;-6.41;100.00
21574;BME280;10948;48.706;9.258;2023-12-04T03:17:43;97766.84;;;-6.29;100.00
21574;BME280;10948;48.706;9.258;2023-12-04T03:20:09;97758.31;;;-6.50;100.00
21574;BME280;10948;48.706;9.258;2023-12-04T03:22:35;97751.63;;;-6.42;100.00
21574;BME280;10948;48.706;9.258;2023-12-04T03:25:01;97753.25;;;-6.44;100.00
21574;BME280;10948;48.706;9.258;2023-12-04T03:27:26;97747.34;;;-6.48;100.00
21574;BME280;10948;48.706;9.258;2023-12-04T03:29:51;97739.81;;;-6.40;100.00
21574;BME280;10948;48.706;9.258;2023-12-04T03:32:17;97724.59;;;-6.49;100.00
21574;BME280;10948;48.706;9.258;2023-12-04T03:34:42;97722.09;;;-6.36;100.00
21574;BME280;10948;48.706;9.258;2023-12-04T03:37:07;97717.91;;;-6.35;100.00
21574;BME280;10948;48.706;9.258;2023-12-04T03:39:32;97709.47;;;-6.36;100.00
21574;BME280;10948;48.706;9.258;2023-12-04T03:41:57;97711.09;;;-6.45;100.00
21574;BME280;10948;48.706;9.258;2023-12-04T03:44:23;97706.13;;;-6.30;100.00
21574;BME280;10948;48.706;9.258;2023-12-04T03:46:48;97701.06;;;-6.29;100.00
21574;BME280;10948;48.706;9.258;2023-12-04T03:49:13;97696.03;;;-6.24;100.00
21574;BME280;10948;48.706;9.258;2023-12-04T03:51:38;97692.63;;;-6.26;100.00
21574;BME280;10948;48.706;9.258;2023-12-04T03:54:04;97689.22;;;-6.31;100.00
21574;BME280;10948;48.706;9.258;2023-12-04T03:56:29;97691.88;;;-6.06;100.00
21574;BME280;10948;48.706;9.258;2023-12-04T03:58:54;97696.91;;;-6.13;100.00
21574;BME280;10948;48.706;9.258;2023-12-04T04:01:19;97696.88;;;-6.27;100.00
21574;BME280;10948;48.706;9.258;2023-12-04T04:03:44;97696.88;;;-6.19;100.00
21574;BME280;10948;48.706;9.258;2023-12-04T04:06:11;97693.50;;;-6.23;100.00
21574;BME280;10948;48.706;9.258;2023-12-04T04:08:36;97694.41;;;-6.04;100.00
21574;BME280;10948;48.706;9.258;2023-12-04T04:11:01;97690.13;;;-6.19;100.00
21574;BME280;10948;48.706;9.258;2023-12-04T04:13:27;97689.34;;;-6.01;100.00
21574;BME280;10948;48.706;9.258;2023-12-04T04:15:52;97690.16;;;-6.05;100.00
21574;BME280;10948;48.706;9.258;2023-12-04T04:18:17;97691.06;;;-5.94;100.00
21574;BME280;10948;48.706;9.258;2023-12-04T04:20:42;97690.22;;;-5.83;100.00
21574;BME280;10948;48.706;9.258;2023-12-04T04:23:07;97689.38;;;-5.71;100.00
21574;BME280;10948;48.706;9.258;2023-12-04T04:25:33;97691.03;;;-5.99;100.00
21574;BME280;10948;48.706;9.258;2023-12-04T04:27:58;97693.56;;;-6.00;100.00
21574;BME280;10948;48.706;9.258;2023-12-04T04:30:23;97687.66;;;-5.93;100.00
21574;BME280;10948;48.706;9.258;2023-12-04T04:32:48;97692.78;;;-5.84;100.00
21574;BME280;10948;48.706;9.258;2023-12-04T04:35:14;97682.59;;;-5.99;100.00
21574;BME280;10948;48.706;9.258;2023-12-04T04:37:39;97694.47;;;-5.83;100.00
21574;BME280;10948;48.706;9.258;2023-12-04T04:40:04;97693.56;;;-5.99;100.00
21574;BME280;10948;48.706;9.258;2023-12-04T04:42:30;97691.94;;;-5.83;100.00
21574;BME280;10948;48.706;9.258;2023-12-04T04:44:55;97688.53;;;-5.85;100.00
21574;BME280;10948;48.706;9.258;2023-12-04T04:47:20;97689.38;;;-5.89;100.00
21574;BME280;10948;48.706;9.258;2023-12-04T04:49:46;97689.34;;;-5.97;100.00
21574;BME280;10948;48.706;9.258;2023-12-04T04:52:11;97689.34;;;-5.92;100.00
21574;BME280;10948;48.706;9.258;2023-12-04T04:54:36;97686.00;;;-5.85;100.00
21574;BME280;10948;48.706;9.258;2023-12-04T04:57:01;97683.47;;;-5.79;100.00
21574;BME280;10948;48.706;9.258;2023-12-04T04:59:27;97682.66;;;-5.81;100.00
21574;BME280;10948;48.706;9.258;2023-12-04T05:01:55;97679.28;;;-5.83;100.00
21574;BME280;10948;48.706;9.258;2023-12-04T05:04:20;97676.72;;;-5.73;100.00
21574;BME280;10948;48.706;9.258;2023-12-04T05:06:46;97679.22;;;-5.71;100.00
21574;BME280;10948;48.706;9.258;2023-12-04T05:09:11;97678.41;;;-5.66;100.00
21574;BME280;10948;48.706;9.258;2023-12-04T05:11:36;97670.81;;;-5.58;100.00
21574;BME280;10948;48.706;9.258;2023-12-04T05:14:01;97660.69;;;-5.55;100.00
21574;BME280;10948;48.706;9.258;2023-12-04T05:16:26;97655.63;;;-5.64;100.00
21574;BME280;10948;48.706;9.258;2023-12-04T05:18:52;97662.38;;;-5.66;100.00
21574;BME280;10948;48.706;9.258;2023-12-04T05:21:17;97649.69;;;-5.51;100.00
21574;BME280;10948;48.706;9.258;2023-12-04T05:23:42;97641.28;;;-5.56;100.00
21574;BME280;10948;48.706;9.258;2023-12-04T05:26:07;97644.66;;;-5.63;100.00
21574;BME280;10948;48.706;9.258;2023-12-04T05:28:33;97637.91;;;-5.49;100.00
21574;BME280;10948;48.706;9.258;2023-12-04T05:30:59;97636.19;;;-5.59;100.00
21574;BME280;10948;48.706;9.258;2023-12-04T05:33:25;97633.66;;;-5.68;100.00
21574;BME280;10948;48.706;9.258;2023-12-04T05:35:50;97630.28;;;-5.61;100.00
21574;BME280;10948;48.706;9.258;2023-12-04T05:38:18;97624.38;;;-5.69;100.00
21574;BME280;10948;48.706;9.258;2023-12-04T05:40:44;97612.53;;;-5.69;100.00
21574;BME280;10948;48.706;9.258;2023-12-04T05:43:09;97613.41;;;-5.62;100.00
21574;BME280;10948;48.706;9.258;2023-12-04T05:45:34;97615.06;;;-5.52;100.00
21574;BME280;10948;48.706;9.258;2023-12-04T05:48:00;97619.31;;;-5.53;100.00
21574;BME280;10948;48.706;9.258;2023-12-04T05:50:25;97615.09;;;-5.49;100.00
21574;BME280;10948;48.706;9.258;2023-12-04T05:52:51;97611.72;;;-5.47;100.00
21574;BME280;10948;48.706;9.258;2023-12-04T05:55:16;97621.81;;;-5.45;100.00
21574;BME280;10948;48.706;9.258;2023-12-04T05:57:41;97616.75;;;-5.50;100.00
21574;BME280;10948;48.706;9.258;2023-12-04T06:00:07;97611.69;;;-5.51;100.00
21574;BME280;10948;48.706;9.258;2023-12-04T06:02:42;97603.25;;;-5.47;100.00
21574;BME280;10948;48.706;9.258;2023-12-04T06:05:07;97604.94;;;-5.46;100.00
21574;BME280;10948;48.706;9.258;2023-12-04T06:07:33;97609.19;;;-5.41;100.00
21574;BME280;10948;48.706;9.258;2023-12-04T06:09:58;97600.72;;;-5.46;100.00
21574;BME280;10948;48.706;9.258;2023-12-04T06:12:23;97606.63;;;-5.36;100.00
21574;BME280;10948;48.706;9.258;2023-12-04T06:14:48;97619.28;;;-5.35;100.00
21574;BME280;10948;48.706;9.258;2023-12-04T06:17:14;97618.44;;;-5.23;100.00
21574;BME280;10948;48.706;9.258;2023-12-04T06:19:39;97612.50;;;-5.15;100.00
21574;BME280;10948;48.706;9.258;2023-12-04T06:22:04;97611.66;;;-5.16;100.00
21574;BME280;10948;48.706;9.258;2023-12-04T06:24:30;97606.56;;;-5.13;100.00
21574;BME280;10948;48.706;9.258;2023-12-04T06:26:55;97606.59;;;-5.16;100.00
21574;BME280;10948;48.706;9.258;2023-12-04T06:29:21;97603.22;;;-5.12;100.00
21574;BME280;10948;48.706;9.258;2023-12-04T06:31:46;97607.44;;;-5.05;100.00
21574;BME280;10948;48.706;9.258;2023-12-04T06:34:12;97597.31;;;-5.17;100.00
21574;BME280;10948;48.706;9.258;2023-12-04T06:36:38;97596.47;;;-5.24;100.00
21574;BME280;10948;48.706;9.258;2023-12-04T06:39:04;97593.06;;;-5.21;100.00
21574;BME280;10948;48.706;9.258;2023-12-04T06:41:33;97592.22;;;-5.18;100.00
21574;BME280;10948;48.706;9.258;2023-12-04T06:43:58;97593.88;;;-5.07;100.00
21574;BME280;10948;48.706;9.258;2023-12-04T06:46:24;97593.06;;;-5.15;100.00
21574;BME280;10948;48.706;9.258;2023-12-04T06:48:51;97588.81;;;-5.05;100.00
21574;BME280;10948;48.706;9.258;2023-12-04T06:51:19;97579.56;;;-5.11;100.00
21574;BME280;10948;48.706;9.258;2023-12-04T06:53:44;97569.41;;;-5.14;100.00
21574;BME280;10948;48.706;9.258;2023-12-04T06:56:10;97572.75;;;-4.98;100.00
21574;BME280;10948;48.706;9.258;2023-12-04T06:58:35;97572.75;;;-5.06;100.00
21574;BME280;10948;48.706;9.258;2023-12-04T07:01:01;97569.38;;;-5.02;100.00
21574;BME280;10948;48.706;9.258;2023-12-04T07:03:26;97565.19;;;-5.13;100.00
21574;BME280;10948;48.706;9.258;2023-12-04T07:05:52;97555.88;;;-5.11;100.00
21574;BME280;10948;48.706;9.258;2023-12-04T07:08:17;97560.06;;;-5.06;100.00
21574;BME280;10948;48.706;9.258;2023-12-04T07:10:43;97573.59;;;-4.99;100.00
21574;BME280;10948;48.706;9.258;2023-12-04T07:13:08;97570.22;;;-5.03;100.00
21574;BME280;10948;48.706;9.258;2023-12-04T07:15:33;97575.25;;;-4.95;100.00
21574;BME280;10948;48.706;9.258;2023-12-04T07:17:59;97562.56;;;-4.94;100.00
21574;BME280;10948;48.706;9.258;2023-12-04T07:20:24;97568.44;;;-4.72;100.00
21574;BME280;10948;48.706;9.258;2023-12-04T07:22:49;97555.75;;;-4.77;100.00
21574;BME280;10948;48.706;9.258;2023-12-04T07:25:15;97564.19;;;-4.75;100.00
21574;BME280;10948;48.706;9.258;2023-12-04T07:27:41;97554.03;;;-4.69;100.00
21574;BME280;10948;48.706;9.258;2023-12-04T07:30:07;97555.75;;;-4.80;100.00
21574;BME280;10948;48.706;9.258;2023-12-04T07:32:32;97561.63;;;-4.61;100.00
21574;BME280;10948;48.706;9.258;2023-12-04T07:34:57;97554.03;;;-4.69;100.00
21574;BME280;10948;48.706;9.258;2023-12-04T07:37:23;97542.19;;;-4.64;100.00
21574;BME280;10948;48.706;9.258;2023-12-04T07:39:49;97553.13;;;-4.59;100.00
21574;BME280;10948;48.706;9.258;2023-12-04T07:42:14;97544.69;;;-4.61;100.00
21574;BME280;10948;48.706;9.258;2023-12-04T07:44:39;97543.81;;;-4.51;100.00
21574;BME280;10948;48.706;9.258;2023-12-04T07:47:04;97543.81;;;-4.51;100.00
21574;BME280;10948;48.706;9.258;2023-12-04T07:49:30;97538.66;;;-4.42;100.00
21574;BME280;10948;48.706;9.258;2023-12-04T07:51:55;97540.34;;;-4.38;100.00
21574;BME280;10948;48.706;9.258;2023-12-04T07:54:20;97540.34;;;-4.39;100.00
21574;BME280;10948;48.706;9.258;2023-12-04T07:56:47;97544.53;;;-4.31;100.00
21574;BME280;10948;48.706;9.258;2023-12-04T07:59:12;97540.31;;;-4.32;100.00
21574;BME280;10948;48.706;9.258;2023-12-04T08:01:38;97530.91;;;-4.21;100.00
21574;BME280;10948;48.706;9.258;2023-12-04T08:04:03;97523.31;;;-4.24;100.00
21574;BME280;10948;48.706;9.258;2023-12-04T08:06:28;97523.25;;;-4.15;100.00
21574;BME280;10948;48.706;9.258;2023-12-04T08:08:54;97538.50;;;-4.12;100.00
21574;BME280;10948;48.706;9.258;2023-12-04T08:11:21;97545.22;;;-4.05;100.00
21574;BME280;10948;48.706;9.258;2023-12-04T08:13:46;97545.16;;;-4.02;100.00
21574;BME280;10948;48.706;9.258;2023-12-04T08:16:12;97534.88;;;-3.87;100.00
21574;BME280;10948;48.706;9.258;2023-12-04T08:18:38;97532.28;;;-3.78;100.00
21574;BME280;10948;48.706;9.258;2023-12-04T08:21:03;97525.59;;;-3.86;100.00
21574;BME280;10948;48.706;9.258;2023-12-04T08:23:28;97544.22;;;-3.90;100.00
21574;BME280;10948;48.706;9.258;2023-12-04T08:25:54;97545.78;;;-3.68;100.00
21574;BME280;10948;48.706;9.258;2023-12-04T08:28:19;97546.66;;;-3.74;100.00
21574;BME280;10948;48.706;9.258;2023-12-04T08:30:45;97531.53;;;-3.89;100.00
21574;BME280;10948;48.706;9.258;2023-12-04T08:33:10;97525.63;;;-3.92;100.00
21574;BME280;10948;48.706;9.258;2023-12-04T08:35:36;97521.28;;;-3.80;100.00
21574;BME280;10948;48.706;9.258;2023-12-04T08:38:01;97503.34;;;-3.62;100.00
21574;BME280;10948;48.706;9.258;2023-12-04T08:40:26;97505.06;;;-3.67;100.00
21574;BME280;10948;48.706;9.258;2023-12-04T08:42:51;97505.00;;;-3.61;100.00
21574;BME280;10948;48.706;9.258;2023-12-04T08:45:17;97506.78;;;-3.67;100.00
21574;BME280;10948;48.706;9.258;2023-12-04T08:47:42;97499.88;;;-3.53;100.00
21574;BME280;10948;48.706;9.258;2023-12-04T08:50:07;97493.75;;;-3.36;100.00
21574;BME280;10948;48.706;9.258;2023-12-04T08:52:32;97500.53;;;-3.35;100.00
21574;BME280;10948;48.706;9.258;2023-12-04T08:54:57;97507.38;;;-3.43;100.00
21574;BME280;10948;48.706;9.258;2023-12-04T08:57:23;97497.34;;;-3.55;100.00
21574;BME280;10948;48.706;9.258;2023-12-04T08:59:48;97497.28;;;-3.49;100.00
21574;BME280;10948;48.706;9.258;2023-12-04T09:02:13;97493.88;;;-3.48;100.00
21574;BME280;10948;48.706;9.258;2023-12-04T09:04:39;97495.38;;;-3.27;100.00
21574;BME280;10948;48.706;9.258;2023-12-04T09:07:04;97512.31;;;-3.28;100.00
21574;BME280;10948;48.706;9.258;2023-12-04T09:09:30;97507.22;;;-3.28;100.00
21574;BME280;10948;48.706;9.258;2023-12-04T09:11:55;97505.31;;;-3.08;100.00
21574;BME280;10948;48.706;9.258;2023-12-04T09:14:20;97505.28;;;-3.05;100.00
21574;BME280;10948;48.706;9.258;2023-12-04T09:16:46;97503.63;;;-3.10;100.00
21574;BME280;10948;48.706;9.258;2023-12-04T09:19:11;97491.84;;;-3.16;100.00
21574;BME280;10948;48.706;9.258;2023-12-04T09:21:36;97488.28;;;-3.03;100.00
21574;BME280;10948;48.706;9.258;2023-12-04T09:24:02;97498.22;;;-2.82;100.00
21574;BME280;10948;48.706;9.258;2023-12-04T09:26:27;97504.97;;;-2.79;100.00
21574;BME280;10948;48.706;9.258;2023-12-04T09:28:53;97505.78;;;-2.77;100.00
21574;BME280;10948;48.706;9.258;2023-12-04T09:31:18;97501.69;;;-2.89;100.00
21574;BME280;10948;48.706;9.258;2023-12-04T09:33:44;97498.19;;;-2.79;100.00
21574;BME280;10948;48.706;9.258;2023-12-04T09:36:10;97497.84;;;-2.52;100.00
21574;BME280;10948;48.706;9.258;2023-12-04T09:38:35;97495.66;;;-2.80;100.00
21574;BME280;10948;48.706;9.258;2023-12-04T09:41:01;97490.22;;;-2.56;100.00
21574;BME280;10948;48.706;9.258;2023-12-04T09:43:28;97484.25;;;-2.54;100.00
21574;BME280;10948;48.706;9.258;2023-12-04T09:45:55;97496.72;;;-2.34;100.00
21574;BME280;10948;48.706;9.258;2023-12-04T09:48:21;97497.06;;;-2.60;100.00
21574;BME280;10948;48.706;9.258;2023-12-04T09:50:47;97501.06;;;-2.41;100.00
21574;BME280;10948;48.706;9.258;2023-12-04T09:53:12;97502.00;;;-2.49;100.00
21574;BME280;10948;48.706;9.258;2023-12-04T09:55:38;97496.09;;;-2.48;100.00
21574;BME280;10948;48.706;9.258;2023-12-04T09:58:04;97501.09;;;-2.44;100.00
21574;BME280;10948;48.706;9.258;2023-12-04T10:00:30;97502.72;;;-2.40;100.00
21574;BME280;10948;48.706;9.258;2023-12-04T10:02:56;97484.78;;;-2.31;100.00
21574;BME280;10948;48.706;9.258;2023-12-04T10:05:22;97487.09;;;-2.16;100.00
21574;BME280;10948;48.706;9.258;2023-12-04T10:07:48;97491.34;;;-2.15;100.00
21574;BME280;10948;48.706;9.258;2023-12-04T10:10:14;97527.78;;;-2.10;100.00
21574;BME280;10948;48.706;9.258;2023-12-04T10:12:40;97484.09;;;-1.87;100.00
21574;BME280;10948;48.706;9.258;2023-12-04T10:15:08;97498.09;;;-1.61;100.00
21574;BME280;10948;48.706;9.258;2023-12-04T10:17:34;97488.00;;;-1.67;100.00
21574;BME280;10948;48.706;9.258;2023-12-04T10:20:09;97493.97;;;-1.68;100.00
21574;BME280;10948;48.706;9.258;2023-12-04T10:22:42;97482.75;;;-1.58;100.00
21574;BME280;10948;48.706;9.258;2023-12-04T10:25:17;97476.19;;;-1.71;100.00
21574;BME280;10948;48.706;9.258;2023-12-04T10:27:43;97475.00;;;-1.52;100.00
21574;BME280;10948;48.706;9.258;2023-12-04T10:30:09;97463.19;;;-1.57;100.00
21574;BME280;10948;48.706;9.258;2023-12-04T10:32:41;97462.94;;;-1.44;100.00
21574;BME280;10948;48.706;9.258;2023-12-04T10:35:06;97463.41;;;-1.24;100.00
21574;BME280;10948;48.706;9.258;2023-12-04T10:37:37;97448.22;;;-1.30;100.00
21574;BME280;10948;48.706;9.258;2023-12-04T10:40:03;97430.81;;;-1.11;100.00
21574;BME280;10948;48.706;9.258;2023-12-04T10:42:29;97445.34;;;-1.13;100.00
21574;BME280;10948;48.706;9.258;2023-12-04T10:44:55;97425.38;;;-0.95;100.00
21574;BME280;10948;48.706;9.258;2023-12-04T10:47:21;97419.75;;;-0.69;100.00
21574;BME280;10948;48.706;9.258;2023-12-04T10:49:50;97408.00;;;-0.78;100.00
21574;BME280;10948;48.706;9.258;2023-12-04T10:52:16;97407.38;;;-0.89;100.00
21574;BME280;10948;48.706;9.258;2023-12-04T10:54:41;97406.19;;;-0.73;100.00
21574;BME280;10948;48.706;9.258;2023-12-04T10:57:06;97392.69;;;-0.78;100.00
21574;BME280;10948;48.706;9.258;2023-12-04T10:59:36;97399.91;;;-0.60;100.00
21574;BME280;10948;48.706;9.258;2023-12-04T11:02:04;97388.50;;;-0.44;100.00
21574;BME280;10948;48.706;9.258;2023-12-04T11:04:30;97407.41;;;-0.51;100.00
21574;BME280;10948;48.706;9.258;2023-12-04T11:06:56;97376.59;;;-0.81;100.00
21574;BME280;10948;48.706;9.258;2023-12-04T11:09:24;97380.22;;;-0.55;100.00
21574;BME280;10948;48.706;9.258;2023-12-04T11:11:53;97361.19;;;-0.42;100.00
21574;BME280;10948;48.706;9.258;2023-12-04T11:14:22;97370.28;;;0.03;100.00
21574;BME280;10948;48.706;9.258;2023-12-04T11:16:48;97362.13;;;-0.11;100.00
21574;BME280;10948;48.706;9.258;2023-12-04T11:19:18;97348.00;;;0.08;100.00
21574;BME280;10948;48.706;9.258;2023-12-04T11:21:47;97351.81;;;-0.08;100.00
21574;BME280;10948;48.706;9.258;2023-12-04T11:24:12;97358.06;;;-0.53;100.00
21574;BME280;10948;48.706;9.258;2023-12-04T11:26:38;97358.47;;;-0.71;100.00
21574;BME280;10948;48.706;9.258;2023-12-04T11:29:04;97345.47;;;-0.62;100.00
21574;BME280;10948;48.706;9.258;2023-12-04T11:31:30;97346.00;;;-0.48;100.00
21574;BME280;10948;48.706;9.258;2023-12-04T11:34:01;97353.41;;;-0.74;100.00
21574;BME280;10948;48.706;9.258;2023-12-04T11:36:26;97346.59;;;-0.72;100.00
21574;BME280;10948;48.706;9.258;2023-12-04T11:38:52;97336.91;;;-0.59;100.00
21574;BME280;10948;48.706;9.258;2023-12-04T11:41:21;97341.25;;;-0.63;100.00
21574;BME280;10948;48.706;9.258;2023-12-04T11:43:46;97337.16;;;-0.70;100.00
21574;BME280;10948;48.706;9.258;2023-12-04T11:46:21;97328.84;;;-0.43;100.00
21574;BME280;10948;48.706;9.258;2023-12-04T11:48:48;97327.03;;;-0.38;100.00
21574;BME280;10948;48.706;9.258;2023-12-04T11:53:58;97297.53;;;-0.51;100.00
21574;BME280;10948;48.706;9.258;2023-12-04T11:56:24;97290.25;;;-0.66;100.00
21574;BME280;10948;48.706;9.258;2023-12-04T11:58:49;97275.63;;;-0.61;100.00
21574;BME280;10948;48.706;9.258;2023-12-04T12:01:16;97264.63;;;-0.63;100.00
21574;BME280;10948;48.706;9.258;2023-12-04T12:03:42;97257.25;;;-0.75;100.00
21574;BME280;10948;48.706;9.258;2023-12-04T12:06:07;97250.19;;;-0.99;100.00
21574;BME280;10948;48.706;9.258;2023-12-04T12:08:32;97248.16;;;-0.85;100.00
21574;BME280;10948;48.706;9.258;2023-12-04T12:10:58;97247.91;;;-0.74;100.00
21574;BME280;10948;48.706;9.258;2023-12-04T12:13:23;97244.56;;;-0.78;100.00
21574;BME280;10948;48.706;9.258;2023-12-04T12:15:51;97231.16;;;-0.86;100.00
21574;BME280;10948;48.706;9.258;2023-12-04T12:18:16;97234.50;;;-0.84;100.00
21574;BME280;10948;48.706;9.258;2023-12-04T12:20:41;97246.06;;;-0.69;100.00
21574;BME280;10948;48.706;9.258;2023-12-04T12:23:07;97239.38;;;-0.41;100.00
21574;BME280;10948;48.706;9.258;2023-12-04T12:25:32;97240.22;;;-0.73;100.00
21574;BME280;10948;48.706;9.258;2023-12-04T12:28:01;97229.84;;;-0.35;100.00
21574;BME280;10948;48.706;9.258;2023-12-04T12:30:26;97230.69;;;-0.68;100.00
21574;BME280;10948;48.706;9.258;2023-12-04T12:32:52;97224.63;;;-0.62;100.00
21574;BME280;10948;48.706;9.258;2023-12-04T12:35:17;97218.50;;;-0.57;100.00
21574;BME280;10948;48.706;9.258;2023-12-04T12:37:42;97210.00;;;-0.91;100.00
21574;BME280;10948;48.706;9.258;2023-12-04T12:40:09;97202.53;;;-1.00;100.00
21574;BME280;10948;48.706;9.258;2023-12-04T12:42:34;97205.84;;;-0.95;100.00
21574;BME280;10948;48.706;9.258;2023-12-04T12:45:01;97205.16;;;-0.68;100.00